createdAt,value
2022-11-20T00:01:14.043Z,4.02
2022-11-20T00:15:50.558Z,4.02
2022-11-20T00:19:53.906Z,4.03
2022-11-20T00:23:59.663Z,4.06
2022-11-20T00:28:01.232Z,4.06
2022-11-20T00:32:02.788Z,4.05
2022-11-20T00:36:06.814Z,4.11
2022-11-20T00:40:09.066Z,4.11
2022-11-20T00:44:10.836Z,4.11
2022-11-20T00:48:12.363Z,4.08
2022-11-20T00:52:14.039Z,4.07
2022-11-20T00:56:18.097Z,4.13
2022-11-20T01:00:19.729Z,4.15
2022-11-20T01:04:21.313Z,4.17
2022-11-20T01:08:22.915Z,4.11
2022-11-20T01:12:24.477Z,4.09
2022-11-20T02:03:08.359Z,4.21
2022-11-20T02:07:10.546Z,4.15
2022-11-20T02:11:13.850Z,4.17
2022-11-20T02:15:15.481Z,4.16
2022-11-20T02:19:29.778Z,4.19
2022-11-20T02:23:40.625Z,4.19
2022-11-20T02:54:11.685Z,4.06
2022-11-20T03:03:33.741Z,4.07
2022-11-20T03:07:56.112Z,4.07
2022-11-20T03:15:27.373Z,4.05
2022-11-20T03:17:29.343Z,3.95
2022-11-20T03:22:27.310Z,3.96
2022-11-20T03:26:38.102Z,3.96
2022-11-20T03:30:41.303Z,4.01
2022-11-20T04:03:20.775Z,4.02
2022-11-20T04:07:24.968Z,4.03
2022-11-20T04:11:29.136Z,4.02
2022-11-20T04:15:34.387Z,4.05
2022-11-20T04:19:39.940Z,4.04
2022-11-20T04:23:41.623Z,4.06
2022-11-20T04:27:43.453Z,4.05
2022-11-20T04:31:45.245Z,4.07
2022-11-20T04:35:49.989Z,4.07
2022-11-20T05:05:56.289Z,4.01
2022-11-20T05:10:25.623Z,4.09
2022-11-20T05:14:28.361Z,4.07
2022-11-20T05:18:31.162Z,4.10
2022-11-20T05:22:32.848Z,4.17
2022-11-20T05:26:34.587Z,4.19
2022-11-20T05:30:36.147Z,4.20
2022-11-20T05:34:37.728Z,4.13
2022-11-20T05:38:39.668Z,4.08
2022-11-20T05:42:41.301Z,4.15
2022-11-20T05:46:43.042Z,4.20
2022-11-20T05:50:44.601Z,4.26
2022-11-20T05:54:46.160Z,4.21
2022-11-20T05:58:48.247Z,4.17
2022-11-20T06:02:50.001Z,4.11
2022-11-20T06:06:51.664Z,4.17
2022-11-20T06:10:53.315Z,4.20
2022-11-20T06:14:55.010Z,4.17
2022-11-20T06:18:56.597Z,4.18
2022-11-20T06:22:58.229Z,4.17
2022-11-20T06:31:58.325Z,4.22
2022-11-20T06:36:10.174Z,4.20
2022-11-20T06:40:13.220Z,4.22
2022-11-20T06:44:15.008Z,4.20
2022-11-20T06:48:16.717Z,4.21
2022-11-20T06:52:18.693Z,4.17
2022-11-20T06:56:20.390Z,4.21
2022-11-20T07:00:40.515Z,4.24
2022-11-20T07:04:49.058Z,4.26
2022-11-20T07:08:53.933Z,4.27
2022-11-20T07:12:55.911Z,4.24
2022-11-20T07:16:57.501Z,4.28
2022-11-20T07:21:06.878Z,4.31
2022-11-20T07:25:09.791Z,4.31
2022-11-20T07:29:11.293Z,4.34
2022-11-20T07:33:12.856Z,4.34
2022-11-20T07:37:14.956Z,4.21
2022-11-20T07:41:16.586Z,4.20
2022-11-20T07:49:43.135Z,4.28
2022-11-20T07:53:44.839Z,4.30
2022-11-20T07:57:46.548Z,4.30
2022-11-20T08:01:48.357Z,4.27
2022-11-20T08:05:49.986Z,4.28
2022-11-20T08:09:51.642Z,4.34
2022-11-20T08:14:12.119Z,4.42
2022-11-20T08:22:35.622Z,4.54
2022-11-20T08:26:37.993Z,4.66
2022-11-20T08:30:39.723Z,4.70
2022-11-20T08:34:41.302Z,4.75
2022-11-20T08:38:42.918Z,4.92
2022-11-20T08:43:17.656Z,5.22
2022-11-20T08:47:20.550Z,5.32
2022-11-20T08:51:22.567Z,5.33
2022-11-20T08:55:24.102Z,5.46
2022-11-20T08:59:58.642Z,5.66
2022-11-20T09:03:47.654Z,5.69
2022-11-20T09:07:49.208Z,5.67
2022-11-20T09:11:51.350Z,5.64
2022-11-20T09:15:57.385Z,5.52
2022-11-20T09:19:59.143Z,5.51
2022-11-20T09:24:00.694Z,5.57
2022-11-20T09:28:02.462Z,5.68
2022-11-20T09:32:04.231Z,5.84
2022-11-20T09:36:06.132Z,6.00
2022-11-20T09:40:14.016Z,6.10
2022-11-20T09:44:35.219Z,6.19
2022-11-20T09:49:02.702Z,6.24
2022-11-20T09:53:13.737Z,6.26
2022-11-20T09:57:20.086Z,6.15
2022-11-20T10:01:27.189Z,6.07
2022-11-20T10:05:34.951Z,6.08
2022-11-20T10:09:44.072Z,6.13
2022-11-20T10:14:05.812Z,6.29
2022-11-20T10:18:07.474Z,6.13
2022-11-20T10:22:27.613Z,6.12
2022-11-20T10:26:53.570Z,6.11
2022-11-20T10:31:05.983Z,6.03
2022-11-20T10:35:16.611Z,5.96
2022-11-20T10:39:27.239Z,5.96
2022-11-20T10:43:34.189Z,5.93
2022-11-20T10:47:36.338Z,5.94
2022-11-20T10:52:12.969Z,5.91
2022-11-20T10:56:33.153Z,5.92
2022-11-20T11:01:35.494Z,6.02
2022-11-20T11:31:35.482Z,6.02
2022-11-20T11:35:51.587Z,6.09
2022-11-20T11:40:26.293Z,6.21
2022-11-20T11:44:52.793Z,6.37
2022-11-20T11:49:19.706Z,6.51
2022-11-20T11:53:28.831Z,6.60
2022-11-20T11:57:50.908Z,6.71
2022-11-20T12:01:58.665Z,6.82
2022-11-20T12:06:16.418Z,6.89
2022-11-20T12:10:23.862Z,6.94
2022-11-20T12:14:44.117Z,7.05
2022-11-20T12:18:49.099Z,7.18
2022-11-20T12:23:15.975Z,7.17
2022-11-20T12:27:43.902Z,7.17
2022-11-20T12:32:19.662Z,7.16
2022-11-20T12:37:03.904Z,7.22
2022-11-20T12:41:46.526Z,7.27
2022-11-20T12:46:24.815Z,7.41
2022-11-20T12:51:00.211Z,7.43
2022-11-20T12:55:12.683Z,7.40
2022-11-20T12:59:52.582Z,7.46
2022-11-20T13:04:03.277Z,7.58
2022-11-20T13:08:20.947Z,7.69
2022-11-20T13:12:44.225Z,7.83
2022-11-20T13:16:48.486Z,7.91
2022-11-20T13:20:50.758Z,8.03
2022-11-20T13:24:53.298Z,8.05
2022-11-20T13:29:23.941Z,8.17
2022-11-20T13:33:36.420Z,8.31
2022-11-20T13:37:39.115Z,8.39
2022-11-20T13:41:41.640Z,8.46
2022-11-20T13:45:43.348Z,8.48
2022-11-20T13:49:49.378Z,8.50
2022-11-20T13:54:19.144Z,8.47
2022-11-20T13:58:33.569Z,8.43
2022-11-20T14:02:35.575Z,8.37
2022-11-20T14:06:51.754Z,8.33
2022-11-20T14:11:06.569Z,8.26
2022-11-20T14:15:26.660Z,8.26
2022-11-20T14:19:31.441Z,8.30
2022-11-20T14:23:33.149Z,8.34
2022-11-20T14:27:38.290Z,8.37
2022-11-20T14:31:40.078Z,8.42
2022-11-20T14:35:54.585Z,8.36
2022-11-20T14:39:57.281Z,8.30
2022-11-20T14:44:00.866Z,8.28
2022-11-20T14:48:02.484Z,8.27
2022-11-20T14:52:16.248Z,8.24
2022-11-20T14:56:24.075Z,8.18
2022-11-20T15:00:26.159Z,8.10
2022-11-20T15:04:28.354Z,8.04
2022-11-20T15:08:30.398Z,7.97
2022-11-20T15:12:33.694Z,7.95
2022-11-20T15:16:35.695Z,7.93
2022-11-20T15:20:37.293Z,7.91
2022-11-20T15:24:38.842Z,7.87
2022-11-20T15:28:45.059Z,7.82
2022-11-20T15:32:47.591Z,7.76
2022-11-20T15:36:49.377Z,7.76
2022-11-20T15:40:50.969Z,7.76
2022-11-20T15:44:52.523Z,7.78
2022-11-20T15:48:58.355Z,7.76
2022-11-20T15:53:00.148Z,7.73
2022-11-20T15:57:03.210Z,7.68
2022-11-20T16:01:04.835Z,7.65
2022-11-20T16:05:12.230Z,7.66
2022-11-20T16:09:13.841Z,7.65
2022-11-20T16:13:37.700Z,7.66
2022-11-20T16:17:45.384Z,7.65
2022-11-20T16:21:47.306Z,7.65
2022-11-20T16:25:50.146Z,7.64
2022-11-20T16:29:51.728Z,7.63
2022-11-20T16:33:55.057Z,7.65
2022-11-20T16:37:57.765Z,7.66
2022-11-20T16:41:59.309Z,7.69
2022-11-20T16:46:04.473Z,7.68
2022-11-20T16:50:06.735Z,7.66
2022-11-20T16:54:09.997Z,7.66
2022-11-20T17:07:31.231Z,7.63
2022-11-20T17:11:33.663Z,7.62
2022-11-20T17:15:35.522Z,7.61
2022-11-20T17:19:42.968Z,7.57
2022-11-20T17:23:45.941Z,7.55
2022-11-20T17:27:47.515Z,7.49
2022-11-20T17:31:49.222Z,7.49
2022-11-20T17:35:50.886Z,7.43
2022-11-20T17:39:52.547Z,7.41
2022-11-20T17:43:56.315Z,7.41
2022-11-20T17:47:57.944Z,7.45
2022-11-20T17:52:00.174Z,7.46
2022-11-20T17:56:20.463Z,7.46
2022-11-20T18:00:25.269Z,7.44
2022-11-20T18:04:27.076Z,7.44
2022-11-20T18:08:28.920Z,7.44
2022-11-20T18:12:30.762Z,7.38
2022-11-20T18:16:41.224Z,7.33
2022-11-20T18:20:45.846Z,7.30
2022-11-20T18:24:47.905Z,7.28
2022-11-20T18:28:49.996Z,7.28
2022-11-20T18:33:10.392Z,7.26
2022-11-20T18:37:15.465Z,7.26
2022-11-20T18:41:38.254Z,7.24
2022-11-20T18:45:42.688Z,7.25
2022-11-20T18:49:50.934Z,7.25
2022-11-20T18:53:53.082Z,7.25
2022-11-20T18:57:55.327Z,7.19
2022-11-20T19:01:58.461Z,7.18
2022-11-20T19:06:00.490Z,7.18
2022-11-20T19:10:03.973Z,7.12
2022-11-20T19:14:06.808Z,7.09
2022-11-20T19:18:08.410Z,7.08
2022-11-20T19:22:10.376Z,7.06
2022-11-20T19:26:12.104Z,7.06
2022-11-20T19:30:15.261Z,7.02
2022-11-20T19:34:16.875Z,7.02
2022-11-20T19:38:18.926Z,7.01
2022-11-20T19:42:20.504Z,7.02
2022-11-20T19:46:23.436Z,7.03
2022-11-20T19:50:24.989Z,7.08
2022-11-20T19:54:27.089Z,7.05
2022-11-20T19:58:29.325Z,7.08
2022-11-20T20:02:34.317Z,7.10
2022-11-20T20:06:38.829Z,7.13
2022-11-20T20:10:40.945Z,7.15
2022-11-20T20:14:52.959Z,7.10
2022-11-20T20:19:24.422Z,7.04
2022-11-20T20:23:45.408Z,7.02
2022-11-20T20:28:46.400Z,6.99
2022-11-20T20:32:53.342Z,6.98
2022-11-20T20:36:57.964Z,6.96
2022-11-20T20:41:15.518Z,6.96
2022-11-20T20:45:19.113Z,6.91
2022-11-20T20:49:29.792Z,6.87
2022-11-20T20:53:38.583Z,6.83
2022-11-20T20:57:42.166Z,6.74
2022-11-20T21:01:44.178Z,6.65
2022-11-20T21:06:22.410Z,6.57
2022-11-20T21:15:07.724Z,6.50
2022-11-20T21:19:10.967Z,6.48
2022-11-20T21:23:15.109Z,6.44
2022-11-20T21:27:16.659Z,6.38
2022-11-20T21:31:22.247Z,6.32
2022-11-20T21:35:23.840Z,6.27
2022-11-20T21:39:25.532Z,6.26
2022-11-20T21:43:27.081Z,6.25
2022-11-20T21:47:28.658Z,6.33
2022-11-20T21:51:30.293Z,6.38
2022-11-20T21:55:31.923Z,6.43
2022-11-20T21:59:33.516Z,6.48
2022-11-20T22:03:35.890Z,6.57
2022-11-20T22:07:53.373Z,6.66
2022-11-20T22:20:47.946Z,6.76
2022-11-20T22:24:56.015Z,6.80
2022-11-20T22:29:08.555Z,6.83
2022-11-20T22:37:53.813Z,6.85
2022-11-20T22:41:55.418Z,6.87
2022-11-20T22:46:19.688Z,6.89
2022-11-20T22:50:21.940Z,6.88
2022-11-20T22:54:23.792Z,6.88
2022-11-20T22:58:31.233Z,6.90
2022-11-20T23:02:33.387Z,6.93
2022-11-20T23:06:35.156Z,6.93
2022-11-20T23:10:39.230Z,6.92
2022-11-20T23:14:56.994Z,6.90
2022-11-20T23:23:50.876Z,6.88
2022-11-20T23:28:10.092Z,6.84
2022-11-20T23:32:14.489Z,6.83
2022-11-20T23:36:26.568Z,6.85
2022-11-20T23:40:44.145Z,6.88
2022-11-20T23:44:45.875Z,6.89
2022-11-20T23:48:52.466Z,6.88
2022-11-20T23:53:00.010Z,6.90
2022-11-20T23:57:19.437Z,6.95
